Latest Weather Observations for Kununurra Airport

IDW60801

Issued at 4:03 am WST Thursday 5 March 2015 (issued every 30 minutes, with the page automatically refreshed every 10 minutes)

About weather observations | Map of weather stations | Latest weather observations for WA | Other Formats
Station Details ID: 002056 Name: KUNUNURRA AERO Lat: -15.78 Lon: 128.71 Height: 44.0 m
Data from the previous 72 hours. | See also: Recent months at Kununurra Airport
Date/Time
WST
Temp
°C
App
Temp
°C
Dew
Point
Rel
Hum
%
Delta-T
°C
Wind Press
QNH
hPa
Press
MSL
hPa
Rain
since 9 am
mm
Dir
 
Spd
km/h
Gust
km/h
Spd
kts
Gust
kts
05/04:00am 26.8 32.7 26.2 96 0.4 NNW 7 9 4 5 1008.7 1008.4 4.0
05/03:30am 26.6 32.5 26.2 98 0.3 NNW 7 11 4 6 1008.1 1007.8 4.0
05/03:00am 26.6 31.6 26.0 96 0.4 N 11 11 6 6 1008.4 1008.1 4.0
05/02:30am 26.6 30.4 25.9 96 0.5 N 17 22 9 12 1008.6 1008.3 4.0
05/02:17am 26.8 31.1 26.1 96 0.5 N 15 19 8 10 1008.2 1007.9 4.0
05/02:00am 26.8 28.9 25.4 92 1.0 N 24 39 13 21 1007.6 1007.3 4.0
05/01:56am 26.7 29.2 25.9 95 0.6 NNE 24 39 13 21 1008.0 1007.7 2.6
05/01:53am 27.4 31.1 25.7 90 1.2 NNE 17 39 9 21 1008.7 1008.4 0.0
05/01:30am 27.7 34.4 25.4 87 1.6 CALM 0 4 0 2 1008.0 1007.7 0.0
05/01:00am 27.7 34.4 25.4 87 1.6 CALM 0 0 0 0 1008.0 1007.7 0.0
05/12:34am 27.5 33.1 25.4 88 1.5 WNW 6 7 3 4 1008.0 1007.7 0.0
05/12:30am 27.5 33.1 25.4 88 1.5 WNW 6 9 3 5 1008.0 1007.7 0.0
05/12:04am 27.6 32.5 25.3 87 1.6 NW 9 11 5 6 1008.2 1007.9 0.0
05/12:00am 27.5 32.9 25.4 88 1.5 NW 7 9 4 5 1008.2 1007.9 0.0
 
Date/Time
WST
Temp
°C
App
Temp
°C
Dew
Point
Rel
Hum
%
Delta-T
°C
Wind Press
QNH
hPa
Press
MSL
hPa
Rain
since 9 am
mm
Dir
 
Spd
km/h
Gust
km/h
Spd
kts
Gust
kts
04/11:30pm 27.5 32.9 25.2 87 1.6 NW 6 9 3 5 1008.6 1008.3 0.0
04/11:15pm 27.4 32.8 25.4 89 1.4 NW 7 7 4 4 1009.0 1008.7 0.0
04/11:00pm 27.4 32.3 25.3 88 1.5 NNW 9 11 5 6 1009.1 1008.8 0.0
04/10:53pm 27.7 33.6 25.3 87 1.7 NW 4 9 2 5 1009.1 1008.8 0.0
04/10:30pm 27.9 33.0 25.0 84 2.0 NW 7 9 4 5 1009.4 1009.1 0.0
04/10:00pm 28.1 32.5 24.5 81 2.5 NNW 9 11 5 6 1009.6 1009.3 0.0
04/09:30pm 28.6 34.9 24.7 79 2.7 CALM 0 2 0 1 1009.3 1009.0 0.0
04/09:00pm 28.3 33.4 24.6 80 2.6 N 6 7 3 4 1009.5 1009.2 0.0
04/08:30pm 28.8 32.7 24.2 76 3.2 N 11 13 6 7 1009.6 1009.3 0.0
04/08:00pm 29.2 33.9 24.3 75 3.4 N 7 9 4 5 1009.3 1009.0 0.0
04/07:30pm 29.6 33.4 24.0 72 3.9 N 11 13 6 7 1009.0 1008.7 0.0
04/07:00pm 30.1 33.9 24.1 70 4.2 NNW 11 13 6 7 1008.3 1008.0 0.0
04/06:30pm 30.5 33.9 24.0 68 4.5 N 13 15 7 8 1007.7 1007.4 0.0
04/06:00pm 31.7 35.7 23.8 63 5.5 NNW 9 11 5 6 1007.0 1006.7 0.0
04/05:30pm 32.7 36.7 23.7 59 6.3 N 9 13 5 7 1006.6 1006.3 0.0
04/05:00pm 34.0 36.7 22.9 52 7.7 NNE 13 17 7 9 1006.2 1005.9 0.0
04/04:30pm 34.7 36.3 21.5 46 9.0 NNE 15 20 8 11 1006.0 1005.7 0.0
04/04:00pm 35.3 36.7 21.9 45 9.2 NNE 17 22 9 12 1005.8 1005.5 0.0
04/03:30pm 35.4 37.1 22.4 47 9.0 N 17 22 9 12 1005.8 1005.5 0.0
04/03:00pm 35.3 37.1 22.6 47 8.8 N 17 26 9 14 1005.8 1005.5 0.0
04/02:30pm 35.4 36.5 22.0 45 9.2 NNE 19 26 10 14 1006.2 1005.9 0.0
04/02:00pm 35.7 36.2 22.0 45 9.4 NNE 22 30 12 16 1006.3 1006.0 0.0
04/01:30pm 35.2 36.3 22.3 47 8.9 NNE 20 35 11 19 1006.4 1006.1 0.0
04/01:00pm 34.8 36.4 22.8 49 8.3 NE 19 28 10 15 1006.9 1006.6 0.0
04/12:30pm 35.2 36.8 23.3 50 8.3 ENE 20 28 11 15 1007.2 1006.9 0.0
04/12:00pm 34.9 36.5 22.8 49 8.4 NNE 19 33 10 18 1007.5 1007.2 0.0
04/11:30am 34.4 36.6 24.0 54 7.3 NNE 19 30 10 16 1007.8 1007.5 0.0
04/11:00am 34.2 36.0 23.6 54 7.4 NNE 20 30 11 16 1008.4 1008.1 0.0
04/10:30am 33.9 34.7 23.1 53 7.5 NE 24 33 13 18 1008.7 1008.4 0.0
04/10:00am 33.2 34.5 23.4 56 6.8 NE 22 32 12 17 1008.8 1008.5 0.0
04/09:30am 32.8 34.5 23.4 57 6.5 ENE 20 28 11 15 1009.0 1008.7 0.0
04/09:00am 31.5 33.1 22.9 60 5.9 NNE 19 22 10 12 1009.1 1008.8 0.0
04/08:30am 30.9 33.2 23.5 64 5.1 N 17 24 9 13 1009.2 1008.9 0.0
04/08:00am 30.7 35.1 25.0 71 4.0 N 11 17 6 9 1009.2 1008.9 0.0
04/07:30am 29.6 33.3 24.6 74 3.5 N 13 20 7 11 1008.8 1008.5 0.0
04/07:26am 29.9 34.7 25.7 78 3.0 N 11 15 6 8 1008.8 1008.5 0.0
04/07:00am 28.7 32.6 25.4 82 2.3 N 15 20 8 11 1008.7 1008.4 0.0
04/06:30am 27.8 33.0 25.7 88 1.5 N 9 13 5 7 1008.2 1007.9 0.0
04/06:00am 27.1 32.7 25.4 90 1.2 NE 6 7 3 4 1007.9 1007.6 0.0
04/05:30am 26.2 31.7 25.3 95 0.6 E 6 7 3 4 1007.5 1007.2 0.0
04/05:00am 26.3 32.9 25.2 94 0.8 CALM 0 0 0 0 1007.1 1006.8 0.0
04/04:30am 26.4 32.3 25.3 94 0.8 SSE 4 7 2 4 1006.8 1006.5 0.0
04/04:00am 26.6 33.4 25.5 94 0.8 CALM 0 0 0 0 1006.6 1006.3 0.0
04/03:30am 26.4 32.9 25.0 92 1.0 CALM 0 0 0 0 1006.7 1006.4 0.0
04/03:00am 26.6 32.9 24.7 89 1.3 CALM 0 0 0 0 1006.7 1006.4 0.0
04/02:30am 26.6 33.2 25.3 93 0.9 CALM 0 0 0 0 1006.5 1006.2 0.0
04/02:00am 26.5 32.9 24.9 91 1.1 CALM 0 0 0 0 1006.4 1006.1 0.0
04/01:30am 26.5 32.9 24.9 91 1.1 CALM 0 0 0 0 1006.2 1005.9 0.0
04/01:00am 26.3 32.7 24.9 92 1.0 CALM 0 0 0 0 1006.3 1006.0 0.0
04/12:30am 27.0 33.4 24.9 88 1.5 CALM 0 0 0 0 1006.5 1006.2 0.0
04/12:00am 27.1 32.3 24.8 87 1.6 NNE 6 9 3 5 1006.8 1006.5 0.0
 
Date/Time
WST
Temp
°C
App
Temp
°C
Dew
Point
Rel
Hum
%
Delta-T
°C
Wind Press
QNH
hPa
Press
MSL
hPa
Rain
since 9 am
mm
Dir
 
Spd
km/h
Gust
km/h
Spd
kts
Gust
kts
03/11:30pm 27.3 33.3 24.9 87 1.7 NW 2 7 1 4 1007.1 1006.8 0.0
03/11:00pm 27.3 33.9 25.2 88 1.5 CALM 0 0 0 0 1007.3 1007.0 0.0
03/10:30pm 27.5 34.0 25.1 87 1.7 CALM 0 4 0 2 1007.6 1007.3 0.0
03/10:00pm 27.3 32.4 25.0 87 1.6 NW 7 9 4 5 1007.4 1007.1 0.0
03/09:30pm 27.8 32.5 24.9 84 2.0 NW 9 9 5 5 1007.2 1006.9 0.0
03/09:00pm 28.7 32.9 24.7 79 2.8 N 11 13 6 7 1006.8 1006.5 0.0
03/08:30pm 29.9 33.0 24.2 71 4.0 NNE 15 19 8 10 1006.7 1006.4 0.0
03/08:00pm 29.6 34.0 24.5 74 3.6 ESE 9 11 5 6 1006.2 1005.9 0.0
03/07:30pm 29.5 35.8 24.8 76 3.3 CALM 0 0 0 0 1005.9 1005.6 0.0
03/07:00pm 29.1 35.4 24.7 77 3.1 CALM 0 0 0 0 1005.6 1005.3 0.0
03/06:30pm 29.6 33.9 24.3 73 3.7 N 9 9 5 5 1005.3 1005.0 0.0
03/06:00pm 30.8 33.8 22.6 61 5.6 N 11 15 6 8 1005.2 1004.9 0.0
03/05:30pm 33.5 34.8 20.2 45 8.9 ENE 13 17 7 9 1004.9 1004.6 0.0
03/05:00pm 34.2 33.7 19.2 41 9.9 ENE 20 32 11 17 1004.4 1004.1 0.0
03/04:30pm 34.8 33.7 19.4 40 10.2 ENE 24 37 13 20 1004.0 1003.7 0.0
03/04:00pm 35.1 34.5 19.8 40 10.2 ENE 22 32 12 17 1003.8 1003.5 0.0
03/03:30pm 35.3 34.2 19.5 39 10.5 ENE 24 33 13 18 1003.8 1003.5 0.0
03/03:00pm 35.5 34.2 19.0 37 10.9 ENE 24 32 13 17 1003.9 1003.6 0.0
03/02:30pm 35.8 34.9 19.8 39 10.7 NE 24 35 13 19 1003.9 1003.6 0.0
03/02:00pm 35.8 36.6 21.8 44 9.6 NE 20 30 11 16 1004.0 1003.7 0.0
03/01:30pm 35.5 35.2 20.4 41 10.1 NE 22 32 12 17 1004.4 1004.1 0.0
03/01:00pm 35.5 36.8 22.3 46 9.1 NE 19 30 10 16 1004.9 1004.6 0.0
03/12:30pm 34.4 35.6 22.5 50 8.2 NNE 20 32 11 17 1005.4 1005.1 0.0
03/12:00pm 34.4 37.6 25.6 60 6.3 NNE 19 30 10 16 1005.8 1005.5 0.0
03/11:30am 32.8 36.0 24.3 61 6.0 N 15 19 8 10 1006.2 1005.9 0.0
03/11:00am 31.3 35.5 24.8 68 4.6 N 11 15 6 8 1006.5 1006.2 0.0
03/10:30am 30.9 35.8 24.6 69 4.4 NE 7 13 4 7 1006.8 1006.5 0.0
03/10:00am 30.6 36.2 25.5 74 3.6 NNE 6 13 3 7 1007.2 1006.9 0.0
03/09:30am 29.6 35.2 25.4 78 3.0 NNW 6 9 3 5 1007.5 1007.2 0.0
03/09:00am 28.3 33.4 25.5 85 2.0 N 9 11 5 6 1007.8 1007.5 0.8
03/08:30am 27.5 31.9 25.1 87 1.7 N 11 15 6 8 1008.0 1007.7 0.8
03/08:00am 26.8 32.0 25.1 90 1.2 NNW 7 9 4 5 1007.9 1007.6 0.8
03/07:30am 26.3 30.8 24.0 87 1.6 NNW 7 9 4 5 1007.7 1007.4 0.8
03/07:00am 26.0 30.3 24.3 90 1.2 WNW 9 11 5 6 1007.4 1007.1 0.8
03/06:30am 25.7 31.1 23.8 89 1.3 SW 2 6 1 3 1006.8 1006.5 0.8
03/06:00am 25.2 29.9 23.9 92 0.9 SW 6 7 3 4 1006.4 1006.1 0.8
03/05:30am 24.8 29.1 23.6 93 0.8 N 7 9 4 5 1006.3 1006.0 0.8
03/05:00am 24.6 28.3 23.9 96 0.5 NNE 11 15 6 8 1006.1 1005.8 0.8
03/04:30am 24.4 30.0 23.5 95 0.6 CALM 0 0 0 0 1005.5 1005.2 0.6
03/04:00am 24.2 28.5 23.3 95 0.6 W 6 7 3 4 1005.0 1004.7 0.6
03/03:30am 23.9 28.1 23.2 96 0.5 N 6 7 3 4 1004.6 1004.3 0.6
03/03:00am 23.9 27.6 23.3 96 0.4 NNW 9 13 5 7 1004.6 1004.3 0.6
03/02:30am 24.3 26.5 23.3 94 0.7 N 17 22 9 12 1004.2 1003.9 0.6
03/02:11am 26.6 29.6 25.5 94 0.8 N 20 33 11 18 1004.8 1004.5 0.2
03/02:00am 27.0 32.5 25.6 92 1.0 NNW 7 11 4 6 1004.5 1004.2 0.2
03/01:30am 27.8 33.9 25.7 88 1.5 E 4 9 2 5 1004.9 1004.6 0.0
03/01:00am 27.8 32.0 24.8 84 2.1 ESE 11 13 6 7 1004.8 1004.5 0.0
03/12:30am 28.8 33.0 24.1 76 3.3 ESE 9 11 5 6 1005.0 1004.7 0.0
03/12:00am 28.9 34.2 25.2 80 2.6 E 7 9 4 5 1005.1 1004.8 0.0
 
Date/Time
WST
Temp
°C
App
Temp
°C
Dew
Point
Rel
Hum
%
Delta-T
°C
Wind Press
QNH
hPa
Press
MSL
hPa
Rain
since 9 am
mm
Dir
 
Spd
km/h
Gust
km/h
Spd
kts
Gust
kts
02/11:30pm 28.6 34.1 25.3 82 2.3 S 6 7 3 4 1004.9 1004.6 0.0
02/11:00pm 28.7 35.0 25.4 82 2.3 N 2 6 1 3 1005.3 1005.0 0.0
02/10:30pm 28.8 35.9 26.0 85 2.0 CALM 0 4 0 2 1005.8 1005.5 0.0
02/10:00pm 28.7 34.2 25.6 83 2.2 N 7 9 4 5 1006.2 1005.9 0.0
02/09:30pm 29.6 36.1 25.1 77 3.2 CALM 0 0 0 0 1006.3 1006.0 0.0
02/09:00pm 29.6 34.3 24.3 73 3.7 E 7 11 4 6 1006.1 1005.8 0.0
02/08:30pm 30.0 35.1 24.7 73 3.7 SSE 6 9 3 5 1006.1 1005.8 0.0
02/08:00pm 29.8 34.4 24.7 74 3.6 E 9 11 5 6 1005.6 1005.3 0.0
02/07:30pm 30.5 34.2 24.5 70 4.2 ESE 13 15 7 8 1005.1 1004.8 0.0
02/07:00pm 31.2 34.8 25.0 69 4.4 ESE 15 22 8 12 1004.5 1004.2 0.0
02/06:30pm 31.8 36.7 25.2 68 4.7 SSE 9 13 5 7 1004.1 1003.8 0.0
02/06:00pm 32.5 37.4 24.6 63 5.6 SE 7 9 4 5 1003.5 1003.2 0.0
02/05:30pm 32.7 37.7 24.8 63 5.6 SSE 7 11 4 6 1003.0 1002.7 0.0
02/05:00pm 33.1 38.1 24.8 61 5.9 S 7 9 4 5 1002.6 1002.3 0.0
02/04:30pm 33.5 37.4 24.3 58 6.5 SSE 11 13 6 7 1002.6 1002.3 0.0
02/04:00pm 33.9 37.7 24.7 58 6.5 SSE 13 15 7 8 1002.7 1002.4 0.0
02/03:30pm 35.0 38.2 22.4 48 8.7 SSE 9 13 5 7 1002.4 1002.1 0.0
02/03:00pm 35.1 38.3 22.4 47 8.8 ESE 9 15 5 8 1002.4 1002.1 0.0
02/02:30pm 34.9 38.4 22.8 49 8.4 SE 9 19 5 10 1002.7 1002.4 0.0
02/02:00pm 35.0 38.4 22.7 49 8.5 SE 9 17 5 9 1003.3 1003.0 0.0
02/01:30pm 34.3 37.4 23.6 53 7.5 SE 13 20 7 11 1003.6 1003.3 0.0
02/01:00pm 33.9 35.3 22.8 52 7.7 ESE 20 26 11 14 1004.1 1003.8 0.0
02/12:30pm 33.4 35.4 23.0 54 7.2 ESE 17 20 9 11 1004.5 1004.2 0.0
02/12:00pm 33.3 35.8 23.1 55 7.1 ESE 15 19 8 10 1005.1 1004.8 0.0
02/11:30am 32.4 34.2 23.3 58 6.3 ESE 19 20 10 11 1005.5 1005.2 0.0
02/11:00am 31.7 33.5 23.3 61 5.8 SE 19 24 10 13 1006.0 1005.7 0.0
02/10:30am 31.5 32.9 22.8 60 6.0 SE 20 26 11 14 1006.5 1006.2 0.0
02/10:00am 31.4 32.0 22.8 60 5.9 SE 24 32 13 17 1007.0 1006.7 0.0
02/09:30am 31.0 33.1 24.1 66 4.8 SE 20 28 11 15 1007.1 1006.8 0.0
02/09:00am 30.4 34.0 24.4 70 4.2 SSE 13 22 7 12 1006.9 1006.6 0.0
02/08:30am 29.1 33.1 23.8 73 3.7 S 9 11 5 6 1006.9 1006.6 0.0
02/08:00am 28.5 32.9 23.4 74 3.5 SW 6 7 3 4 1006.9 1006.6 0.0
02/07:30am 27.5 31.6 23.0 76 3.1 SW 6 7 3 4 1007.0 1006.7 0.0
02/07:00am 27.0 32.1 22.7 77 2.9 CALM 0 6 0 3 1007.2 1006.9 0.0
02/06:30am 26.6 30.2 22.0 76 3.1 SSE 6 7 3 4 1007.2 1006.9 0.0
02/06:00am 26.5 30.4 21.9 76 3.1 SSE 4 7 2 4 1007.0 1006.7 0.0
02/05:30am 26.7 28.1 21.0 71 3.8 SE 15 19 8 10 1006.7 1006.4 0.0
02/05:00am 27.6 30.8 22.4 73 3.5 S 9 13 5 7 1006.4 1006.1 0.0
02/04:30am 27.5 29.5 21.5 70 4.0 WSW 13 20 7 11 1005.1 1004.8 0.0

Other Formats:

Comma delimited format used in spreadsheet applications
http://www.bom.gov.au/fwo/IDW60801/IDW60801.94216.axf

JavaScript Object Notation format (JSON) in row-major order
http://www.bom.gov.au/fwo/IDW60801/IDW60801.94216.json